Ada, Minnesota
Current Conditions -  °F | °C
As of 8:55 AM on Monday 24 Nov 2014 (Local Time) from K3N8 Reporting Station
Light Snow Light Snow  
Wind Chill: -23°   Ceiling: 1600
Heat Index: -13°   Visibility: 2.5mi
Dew Point: -15°   Wind: 17mph
Humidity: 85%   Direction: 330°NNW
Pressure: 29.62"   Gusts: NA
Location:  47.3°N, 96.52°W
Report Text: K3N8 241455Z AUTO 33015KT 2 1/2SM -SN OVC016 M13/M15 A2962 RMK AO2 T11321152
Loading
Personal Weather Stations






























Interactive Weather Map New forecast layout! Learn more

10-Day Weather Forecast

Advertisements
Track Severe Weather on mobile